Time;durP1;ratioP1;P1;durP2;ratioP2;P2;SDS_P1;SDS_P2;PMS_P1;PMS_P2;Temp;Humidity;BMP_temperature;BMP_pressure;BME280_temperature;BME280_humidity;BME280_pressure;Samples;Min_cycle;Max_cycle;Signal;HPM_P1;HPM_P2
2021/10/28 00:12:50;;;;;;;12.55;9.70;;;9.90;99.90;;;;;;5034845;28;20563;-61
2021/10/28 00:15:03;;;;;;;12.10;10.05;;;9.90;99.90;;;;;;5033664;28;20068;-61
2021/10/28 00:17:58;;;;;;;13.20;10.07;;;9.90;99.90;;;;;;5034801;28;20025;-61
2021/10/28 00:20:23;;;;;;;14.75;10.07;;;9.90;99.90;;;;;;5027510;28;20485;-61
2021/10/28 00:22:49;;;;;;;13.68;10.95;;;9.80;99.90;;;;;;5034618;28;20129;-61
2021/10/28 00:25:14;;;;;;;18.80;10.70;;;9.80;99.90;;;;;;5034395;28;20052;-61
2021/10/28 00:27:40;;;;;;;16.60;10.50;;;9.80;99.90;;;;;;5034717;28;20496;-61
2021/10/28 00:30:06;;;;;;;16.60;10.88;;;9.80;99.90;;;;;;5016897;28;20478;-61
2021/10/28 00:32:32;;;;;;;15.85;10.70;;;9.80;99.90;;;;;;5034729;28;20163;-61
2021/10/28 00:34:57;;;;;;;16.25;11.55;;;9.70;99.90;;;;;;5034406;28;20115;-61
2021/10/28 00:37:23;;;;;;;17.52;12.10;;;9.70;99.90;;;;;;5034518;28;20029;-61
2021/10/28 00:39:48;;;;;;;16.75;10.73;;;9.70;99.90;;;;;;5034303;28;20025;-61
2021/10/28 00:42:14;;;;;;;14.93;11.43;;;9.70;99.90;;;;;;5034322;28;20122;-61
2021/10/28 00:44:40;;;;;;;14.80;10.43;;;9.70;99.90;;;;;;5034398;28;20032;-61
2021/10/28 00:47:06;;;;;;;15.73;10.85;;;9.70;99.90;;;;;;5034417;28;20034;-61
2021/10/28 00:49:31;;;;;;;15.93;10.27;;;9.60;99.90;;;;;;5034127;28;20021;-61
2021/10/28 00:51:57;;;;;;;14.48;11.35;;;9.60;99.90;;;;;;5034116;28;20025;-61
2021/10/28 00:54:23;;;;;;;17.25;11.25;;;9.60;99.90;;;;;;5034184;28;20440;-61
2021/10/28 00:56:49;;;;;;;14.63;10.60;;;9.60;99.90;;;;;;5033971;28;20022;-61
2021/10/28 00:59:15;;;;;;;12.90;10.45;;;9.60;99.90;;;;;;5016295;28;20028;-61
2021/10/28 01:01:41;;;;;;;12.30;10.23;;;9.60;99.90;;;;;;5033915;28;20029;-61
2021/10/28 01:04:08;;;;;;;14.80;10.57;;;9.60;99.90;;;;;;5033851;28;20492;-61
2021/10/28 01:06:36;;;;;;;16.77;11.55;;;9.50;99.90;;;;;;5033787;28;20041;-61
2021/10/28 01:09:03;;;;;;;13.85;10.35;;;9.60;99.90;;;;;;5016133;28;20041;-61
2021/10/28 01:11:30;;;;;;;14.55;11.35;;;9.60;99.90;;;;;;5033861;28;20025;-61
2021/10/28 01:13:57;;;;;;;13.82;10.00;;;9.50;99.90;;;;;;5033738;28;20068;-61
2021/10/28 01:16:22;;;;;;;15.55;11.15;;;9.50;99.90;;;;;;5015992;28;20038;-61
2021/10/28 01:18:48;;;;;;;16.95;10.82;;;9.50;99.90;;;;;;5034414;28;20033;-61
2021/10/28 01:21:14;;;;;;;15.48;10.98;;;9.50;99.90;;;;;;5033541;28;20037;-61
2021/10/28 01:23:41;;;;;;;13.32;10.80;;;9.50;99.90;;;;;;5033511;28;20037;-61
2021/10/28 01:26:10;;;;;;;12.85;10.98;;;9.40;99.90;;;;;;5033384;28;20028;-61
2021/10/28 01:28:37;;;;;;;19.48;11.27;;;9.40;99.90;;;;;;5033465;28;20036;-61
2021/10/28 01:31:07;;;;;;;15.20;11.13;;;9.40;99.90;;;;;;5033503;28;20026;-61
2021/10/28 01:33:33;;;;;;;14.27;11.00;;;9.40;99.90;;;;;;5033200;28;20021;-61
2021/10/28 01:35:58;;;;;;;17.30;11.13;;;9.40;99.90;;;;;;5033306;28;20397;-61
2021/10/28 01:38:25;;;;;;;13.05;10.88;;;9.40;99.90;;;;;;5033362;28;20033;-61
2021/10/28 01:40:59;;;;;;;15.95;10.80;;;9.40;99.90;;;;;;5033260;28;20025;-61
2021/10/28 01:43:26;;;;;;;14.73;11.38;;;9.30;99.90;;;;;;5015330;28;20482;-61
2021/10/28 01:45:52;;;;;;;15.57;11.80;;;9.30;99.90;;;;;;5032963;28;20076;-61
2021/10/28 01:48:18;;;;;;;16.98;11.38;;;9.30;99.90;;;;;;5033073;28;20034;-61
2021/10/28 01:50:45;;;;;;;17.48;11.43;;;9.30;99.90;;;;;;5030663;28;20067;-61
2021/10/28 01:53:10;;;;;;;17.48;12.02;;;9.30;99.90;;;;;;5032859;28;20104;-61
2021/10/28 01:55:36;;;;;;;16.60;11.38;;;9.30;99.90;;;;;;5015329;28;20518;-61
2021/10/28 01:58:01;;;;;;;13.55;11.77;;;9.30;99.90;;;;;;5032008;28;20025;-61
2021/10/28 02:00:27;;;;;;;16.63;12.13;;;9.30;99.90;;;;;;5033561;28;20025;-61
2021/10/28 02:02:53;;;;;;;16.13;11.40;;;9.20;99.90;;;;;;5014942;28;20473;-61
2021/10/28 02:05:21;;;;;;;17.55;12.07;;;9.30;99.90;;;;;;5032709;28;20033;-61
2021/10/28 02:07:48;;;;;;;13.93;11.10;;;9.30;99.90;;;;;;5032619;28;20046;-61
2021/10/28 02:10:15;;;;;;;13.52;10.88;;;9.20;99.90;;;;;;5032733;28;20079;-61
2021/10/28 02:12:41;;;;;;;16.13;10.85;;;9.20;99.90;;;;;;5014676;28;20126;-61
2021/10/28 02:15:10;;;;;;;14.38;11.40;;;9.20;99.90;;;;;;5032419;28;20021;-61
2021/10/28 02:17:36;;;;;;;14.63;11.05;;;9.20;99.90;;;;;;5014933;28;20029;-61
2021/10/28 02:20:03;;;;;;;13.32;10.90;;;9.20;99.90;;;;;;5032471;28;20024;-61
2021/10/28 02:22:29;;;;;;;15.45;11.40;;;9.10;99.90;;;;;;5032576;28;20064;-61
2021/10/28 02:24:55;;;;;;;15.38;10.88;;;9.20;99.90;;;;;;5014649;28;20063;-61
2021/10/28 02:27:20;;;;;;;13.75;10.68;;;9.20;99.90;;;;;;5032159;28;20553;-61
2021/10/28 02:29:46;;;;;;;16.63;11.32;;;9.10;99.90;;;;;;5032313;28;20055;-61
2021/10/28 02:32:12;;;;;;;18.38;10.57;;;9.10;99.90;;;;;;5014189;28;20113;-61
2021/10/28 02:34:38;;;;;;;15.25;10.50;;;9.10;99.90;;;;;;5032259;28;20505;-61
2021/10/28 02:37:05;;;;;;;17.20;11.40;;;9.20;99.90;;;;;;5032316;28;20033;-61
2021/10/28 02:39:31;;;;;;;18.58;11.30;;;9.10;99.90;;;;;;5032284;28;20030;-61
2021/10/28 02:41:56;;;;;;;17.63;11.40;;;9.10;99.90;;;;;;5032212;28;20026;-61
2021/10/28 02:44:22;;;;;;;12.40;10.15;;;9.10;99.90;;;;;;5031816;28;20394;-61
2021/10/28 02:46:48;;;;;;;14.50;10.45;;;9.10;99.90;;;;;;5032180;28;20384;-61
2021/10/28 02:49:16;;;;;;;14.40;11.30;;;9.10;99.90;;;;;;5014375;28;20029;-61
2021/10/28 02:51:47;;;;;;;19.10;11.65;;;9.10;99.90;;;;;;5014317;28;20069;-61
2021/10/28 02:54:21;;;;;;;15.43;10.82;;;9.10;99.90;;;;;;5032002;28;20014;-61
2021/10/28 02:56:47;;;;;;;14.73;10.13;;;9.10;99.90;;;;;;5014286;28;20049;-61
2021/10/28 02:59:13;;;;;;;13.68;11.52;;;9.10;99.90;;;;;;5014258;28;20112;-61
2021/10/28 03:01:42;;;;;;;15.45;10.52;;;9.00;99.90;;;;;;5031983;28;20580;-61
2021/10/28 03:04:11;;;;;;;17.23;11.35;;;9.10;99.90;;;;;;5032140;28;20393;-61
2021/10/28 03:06:39;;;;;;;15.77;10.93;;;9.00;99.90;;;;;;5031873;28;20036;-61
2021/10/28 03:09:05;;;;;;;15.95;10.88;;;9.00;99.90;;;;;;5031825;28;20088;-61
2021/10/28 03:11:31;;;;;;;12.80;10.63;;;9.00;99.90;;;;;;5031742;28;20049;-61
2021/10/28 03:13:56;;;;;;;15.95;11.43;;;9.00;99.90;;;;;;5031652;28;20053;-61
2021/10/28 03:27:01;;;;;;;16.83;12.10;;;8.90;99.90;;;;;;5031774;28;20047;-61
2021/10/28 03:29:27;;;;;;;17.13;12.73;;;8.90;99.90;;;;;;5031878;28;20032;-61
2021/10/28 03:31:52;;;;;;;18.95;12.70;;;8.80;99.90;;;;;;5031729;28;20014;-61
2021/10/28 03:34:18;;;;;;;16.63;12.80;;;8.90;99.90;;;;;;5013874;28;20061;-61
2021/10/28 03:36:49;;;;;;;17.73;13.07;;;8.90;99.90;;;;;;5031711;28;20068;-61
2021/10/28 03:42:33;;;;;;;16.63;13.02;;;8.80;99.90;;;;;;5031945;28;20470;-61
2021/10/28 03:47:44;;;;;;;21.17;14.73;;;8.80;99.90;;;;;;5035644;28;20037;-61
2021/10/28 03:58:28;;;;;;;19.27;14.88;;;8.70;99.90;;;;;;5019765;28;20096;-61
2021/10/28 04:16:16;;;;;;;22.35;16.73;;;8.60;99.90;;;;;;5034983;28;20092;-61
2021/10/28 04:29:58;;;;;;;25.98;18.05;;;8.40;99.90;;;;;;5034505;28;20076;-61
2021/10/28 04:32:23;;;;;;;24.38;16.25;;;8.40;99.90;;;;;;5016089;28;20021;-61
2021/10/28 04:34:49;;;;;;;23.10;16.48;;;8.40;99.90;;;;;;5016609;28;20021;-61
2021/10/28 04:37:15;;;;;;;23.85;16.85;;;8.40;99.90;;;;;;5034591;28;20033;-61
2021/10/28 04:39:41;;;;;;;24.85;17.75;;;8.40;99.90;;;;;;5034433;28;20064;-61
2021/10/28 04:42:07;;;;;;;22.90;16.52;;;8.40;99.90;;;;;;5034375;28;20049;-61
2021/10/28 04:44:33;;;;;;;22.35;15.85;;;8.40;99.90;;;;;;5027645;28;20859;-61
2021/10/28 04:46:59;;;;;;;20.63;15.98;;;8.40;99.90;;;;;;5017262;28;20033;-61
2021/10/28 04:49:24;;;;;;;23.08;16.08;;;8.40;99.90;;;;;;5030551;28;20025;-61
2021/10/28 04:52:03;;;;;;;22.05;17.50;;;8.30;99.90;;;;;;5024419;28;20040;-61
2021/10/28 04:54:28;;;;;;;26.98;17.02;;;8.30;99.90;;;;;;5033563;28;20029;-61
2021/10/28 04:56:54;;;;;;;23.15;16.52;;;8.40;99.90;;;;;;5032575;28;20029;-61
2021/10/28 04:59:19;;;;;;;22.85;15.95;;;8.30;99.90;;;;;;5033028;28;20083;-61
2021/10/28 05:01:45;;;;;;;23.90;16.88;;;8.30;99.90;;;;;;5015824;28;20029;-61
2021/10/28 05:04:11;;;;;;;25.55;16.08;;;8.30;99.90;;;;;;5033087;28;20091;-61
2021/10/28 05:06:36;;;;;;;20.23;15.50;;;8.30;99.90;;;;;;5029019;28;20029;-61
2021/10/28 05:09:04;;;;;;;23.30;15.95;;;8.30;99.90;;;;;;5027258;28;20064;-61
2021/10/28 05:11:29;;;;;;;23.88;16.58;;;8.30;99.90;;;;;;5033693;28;20040;-61
2021/10/28 05:13:55;;;;;;;24.17;15.68;;;8.30;99.90;;;;;;5031917;28;20025;-61
2021/10/28 05:16:55;;;;;;;;;;;;;;;;;;;;;
2021/10/28 05:22:42;;;;;;;24.08;16.27;;;8.20;99.90;;;;;;5018427;28;19909;-61
2021/10/28 05:25:08;;;;;;;23.38;16.20;;;8.20;99.90;;;;;;5015475;28;20029;-61
2021/10/28 05:27:39;;;;;;;24.38;15.82;;;8.20;99.90;;;;;;5033099;28;20055;-61
2021/10/28 05:30:05;;;;;;;24.50;15.48;;;8.20;99.90;;;;;;5032279;28;20025;-61
2021/10/28 05:32:31;;;;;;;21.80;15.43;;;8.10;99.90;;;;;;5033173;28;20023;-61
2021/10/28 05:34:59;;;;;;;22.23;14.93;;;8.20;99.90;;;;;;5030901;28;20114;-61
2021/10/28 05:37:59;;;;;;;;;;;;;;;;;;;;;
2021/10/28 05:40:25;;;;;;;;;;;8.10;99.90;;;;;;5027877;28;20041;-61
2021/10/28 05:43:17;;;;;;;23.30;15.52;;;8.10;99.90;;;;;;5032670;28;19924;-61
2021/10/28 05:45:44;;;;;;;20.83;14.68;;;8.10;99.90;;;;;;5028704;28;20060;-61
2021/10/28 05:48:09;;;;;;;23.13;16.58;;;8.10;99.90;;;;;;5032424;28;20029;-61
2021/10/28 05:50:35;;;;;;;22.70;16.33;;;8.00;99.90;;;;;;5029695;28;20371;-61
2021/10/28 05:53:01;;;;;;;21.52;15.32;;;8.00;99.90;;;;;;5022662;28;20026;-61
2021/10/28 05:55:28;;;;;;;20.85;14.88;;;8.00;99.90;;;;;;5031860;28;20020;-61
2021/10/28 05:57:54;;;;;;;21.70;15.07;;;8.00;99.90;;;;;;5032842;28;20037;-61
2021/10/28 06:00:22;;;;;;;23.42;15.15;;;8.00;99.90;;;;;;5029402;28;20036;-61
2021/10/28 06:05:40;;;;;;;23.05;15.55;;;8.00;99.90;;;;;;5026350;28;20046;-60
2021/10/28 06:08:05;;;;;;;21.15;14.65;;;7.90;99.90;;;;;;5030286;28;20045;-61
2021/10/28 06:10:31;;;;;;;20.67;14.52;;;7.90;99.90;;;;;;5014785;28;20028;-61
2021/10/28 06:13:03;;;;;;;21.67;14.50;;;7.90;99.90;;;;;;5032142;28;20366;-61
2021/10/28 06:15:30;;;;;;;22.58;15.20;;;7.90;99.90;;;;;;5032206;28;20025;-61
2021/10/28 06:18:11;;;;;;;19.90;14.82;;;7.90;99.90;;;;;;5030649;28;20018;-61
2021/10/28 06:20:36;;;;;;;23.75;16.08;;;7.90;99.90;;;;;;5030937;28;20017;-61
2021/10/28 06:23:02;;;;;;;26.90;16.20;;;7.90;99.90;;;;;;5032001;28;20036;-61
2021/10/28 06:25:27;;;;;;;22.08;15.73;;;7.90;99.90;;;;;;5030815;28;20425;-61
2021/10/28 06:27:53;;;;;;;23.55;15.95;;;7.80;99.90;;;;;;5022501;28;20378;-61
2021/10/28 06:30:18;;;;;;;23.85;14.88;;;7.80;99.90;;;;;;5029136;28;20381;-61
2021/10/28 06:32:58;;;;;;;29.60;16.17;;;7.80;99.90;;;;;;5032232;28;20354;-61
2021/10/28 06:35:25;;;;;;;20.67;14.95;;;7.80;99.90;;;;;;5030772;28;20029;-61
2021/10/28 06:37:51;;;;;;;24.95;15.98;;;7.80;99.90;;;;;;5032383;28;20118;-61
2021/10/28 06:40:20;;;;;;;22.70;15.75;;;7.80;99.90;;;;;;5031996;28;20034;-61
2021/10/28 06:42:47;;;;;;;22.25;15.38;;;7.80;99.90;;;;;;5031086;28;20028;-61
2021/10/28 06:45:13;;;;;;;23.48;15.15;;;7.80;99.90;;;;;;5031756;28;20038;-61
2021/10/28 06:47:39;;;;;;;24.13;16.15;;;7.80;99.90;;;;;;5029232;28;20079;-61
2021/10/28 06:50:08;;;;;;;23.95;15.75;;;7.80;99.90;;;;;;5023672;28;20036;-61
2021/10/28 06:55:12;;;;;;;22.00;15.20;;;7.80;99.90;;;;;;5027353;28;20029;-61
2021/10/28 06:58:00;;;;;;;21.75;14.52;;;7.80;99.90;;;;;;5029133;28;20061;-61
2021/10/28 07:03:09;;;;;;;20.25;14.85;;;7.80;99.90;;;;;;5030162;28;20501;-61
2021/10/28 07:05:36;;;;;;;22.52;15.30;;;7.90;99.90;;;;;;5029389;28;20514;-61
2021/10/28 07:08:01;;;;;;;25.08;16.10;;;7.90;99.90;;;;;;5003387;28;20045;-61
2021/10/28 07:10:29;;;;;;;24.75;15.20;;;7.90;99.90;;;;;;5029129;28;20033;-61
2021/10/28 07:13:00;;;;;;;22.73;15.27;;;7.90;99.90;;;;;;5029548;28;20021;-61
2021/10/28 07:15:32;;;;;;;20.45;14.88;;;8.00;99.90;;;;;;5029888;28;20037;-61
2021/10/28 07:18:41;;;;;;;20.92;14.15;;;8.00;99.90;;;;;;5019701;28;20057;-60
2021/10/28 07:21:10;;;;;;;22.52;15.35;;;8.00;99.90;;;;;;5030672;28;20033;-61
2021/10/28 07:31:44;;;;;;;23.20;15.32;;;8.10;99.90;;;;;;5034048;28;20037;-61
2021/10/28 07:34:26;;;;;;;24.08;15.95;;;8.10;99.90;;;;;;5014411;28;20033;-61
2021/10/28 07:38:23;;;;;;;23.67;15.85;;;8.20;99.90;;;;;;5013930;28;20408;-61
2021/10/28 08:21:27;;;;;;;22.88;14.82;;;9.00;99.90;;;;;;5024275;28;20034;-61
2021/10/28 08:29:21;;;;;;;23.25;15.52;;;9.30;99.90;;;;;;5029440;28;20405;-61
2021/10/28 08:31:49;;;;;;;23.27;15.00;;;9.40;99.90;;;;;;5032136;28;20477;-61
2021/10/28 08:34:15;;;;;;;22.80;15.57;;;9.40;99.90;;;;;;5032460;28;20073;-61
2021/10/28 08:37:04;;;;;;;;;;;;;;;;;;;;;
2021/10/28 08:39:30;;;;;;;19.10;14.40;;;9.50;99.90;;;;;;5033260;28;20044;-61
2021/10/28 08:42:16;;;;;;;22.20;14.73;;;9.60;99.90;;;;;;5031481;28;20386;-61
2021/10/28 08:44:46;;;;;;;20.88;14.40;;;9.70;99.90;;;;;;5028230;28;20061;-61
2021/10/28 08:47:32;;;;;;;23.05;15.60;;;9.80;99.90;;;;;;5031894;28;20042;-61
2021/10/28 08:50:05;;;;;;;20.25;14.70;;;9.90;99.90;;;;;;5029513;28;20113;-61
2021/10/28 08:55:34;;;;;;;21.27;14.32;;;10.10;99.90;;;;;;5031901;28;20035;-61
2021/10/28 09:27:44;;;;;;;16.45;12.18;;;11.40;99.90;;;;;;5031694;28;20112;-60
2021/10/28 09:32:33;;;;;;;17.45;12.43;;;11.60;99.90;;;;;;5021526;28;20017;-61
2021/10/28 09:44:01;;;;;;;17.58;11.65;;;12.20;99.90;;;;;;5019756;28;20045;-61
2021/10/28 09:53:14;;;;;;;14.32;9.82;;;13.00;98.20;;;;;;4954560;28;20037;-61
2021/10/28 09:59:01;;;;;;;14.95;9.80;;;13.70;97.10;;;;;;5021220;28;20032;-61
2021/10/28 10:01:44;;;;;;;13.05;9.27;;;14.80;96.10;;;;;;4948682;29;20090;-61
2021/10/28 10:04:10;;;;;;;12.75;8.55;;;15.80;93.40;;;;;;4931787;29;20586;-62
2021/10/28 10:06:41;;;;;;;10.80;8.00;;;16.40;91.30;;;;;;5000184;28;20050;-61
2021/10/28 10:09:08;;;;;;;11.38;8.68;;;17.10;90.60;;;;;;5029763;28;20045;-62
2021/10/28 10:11:33;;;;;;;10.20;7.40;;;19.20;83.90;;;;;;5025360;28;20026;-61
2021/10/28 10:14:00;;;;;;;9.02;7.63;;;21.30;76.50;;;;;;5019986;28;20116;-61
2021/10/28 10:16:28;;;;;;;8.00;6.57;;;22.50;67.40;;;;;;5013271;28;20363;-61
2021/10/28 10:18:54;;;;;;;7.63;6.82;;;23.30;63.60;;;;;;5012339;28;20014;-61
2021/10/28 10:24:35;;;;;;;8.73;7.13;;;24.60;58.20;;;;;;5005646;28;20040;-62
2021/10/28 11:28:06;;;;;;;6.63;5.50;;;28.30;43.90;;;;;;5017938;28;20041;-62
2021/10/28 12:47:29;;;;;;;8.70;6.05;;;26.90;46.50;;;;;;5024330;28;20037;-62
2021/10/28 13:37:43;;;;;;;;;;;;;;;;;;;;;
2021/10/28 13:52:40;;;;;;;11.30;5.38;;;25.80;48.90;;;;;;5011362;28;20527;-62
2021/10/28 14:21:56;;;;;;;4.78;4.28;;;24.70;48.70;;;;;;5032715;28;20025;-62
2021/10/28 14:35:37;;;;;;;9.43;5.18;;;24.20;50.60;;;;;;5031365;28;20029;-62
2021/10/28 15:00:33;;;;;;;6.05;4.57;;;22.80;53.30;;;;;;5030263;28;20036;-62
2021/10/28 15:27:46;;;;;;;8.00;5.28;;;20.60;60.00;;;;;;5030969;28;20037;-62
2021/10/28 15:36:08;;;;;;;5.82;4.50;;;20.10;61.60;;;;;;5030809;28;20070;-62
2021/10/28 16:24:26;;;;;;;7.97;5.47;;;16.60;73.70;;;;;;5034830;28;20033;-61
2021/10/28 16:26:53;;;;;;;7.55;4.75;;;16.60;73.90;;;;;;5017558;28;20029;-61
2021/10/28 16:29:19;;;;;;;8.27;4.63;;;16.50;74.20;;;;;;5009105;28;20037;-61
2021/10/28 16:31:45;;;;;;;7.90;5.00;;;16.40;74.50;;;;;;5011958;28;20175;-61
2021/10/28 16:34:11;;;;;;;7.85;5.05;;;16.30;74.90;;;;;;5034545;28;20100;-61
2021/10/28 16:36:37;;;;;;;10.38;4.82;;;16.20;75.30;;;;;;5033295;28;20025;-61
2021/10/28 16:39:09;;;;;;;6.60;5.20;;;16.10;75.70;;;;;;5032103;28;20021;-61
2021/10/28 16:41:35;;;;;;;7.72;5.60;;;16.00;76.00;;;;;;5024118;28;20022;-61
2021/10/28 16:44:16;;;;;;;9.88;4.93;;;15.90;76.60;;;;;;5029961;28;20029;-62
2021/10/28 16:46:43;;;;;;;7.93;5.22;;;15.90;76.90;;;;;;5021179;28;20056;-61
2021/10/28 16:49:10;;;;;;;7.80;5.07;;;15.80;77.40;;;;;;5024532;28;20025;-61
2021/10/28 16:55:31;;;;;;;6.82;5.18;;;15.60;78.30;;;;;;4931390;29;20031;-61
2021/10/28 16:57:56;;;;;;;8.20;5.32;;;15.50;78.90;;;;;;4930175;29;20400;-62
2021/10/28 17:07:51;;;;;;;8.10;5.63;;;15.20;80.30;;;;;;4885711;29;20043;-62
2021/10/28 17:10:16;;;;;;;6.20;5.20;;;15.00;81.00;;;;;;4995747;28;20049;-61
2021/10/28 17:12:42;;;;;;;7.38;4.78;;;15.00;81.10;;;;;;5027984;28;20389;-62
2021/10/28 17:15:08;;;;;;;6.45;5.28;;;15.00;81.30;;;;;;5021882;28;20093;-61
2021/10/28 17:17:34;;;;;;;5.72;4.35;;;15.00;81.40;;;;;;5018833;28;20465;-61
2021/10/28 17:20:05;;;;;;;7.70;4.80;;;14.90;81.50;;;;;;5016491;28;20026;-61
2021/10/28 17:22:32;;;;;;;6.95;4.88;;;14.90;81.70;;;;;;5023338;28;20052;-61
2021/10/28 17:24:59;;;;;;;5.85;4.70;;;14.80;82.00;;;;;;5023441;28;20713;-61
2021/10/28 17:27:24;;;;;;;10.85;5.35;;;14.70;82.30;;;;;;5024820;28;20017;-61
2021/10/28 17:29:57;;;;;;;6.70;4.53;;;14.70;82.40;;;;;;5021034;28;20386;-61
2021/10/28 17:32:23;;;;;;;6.82;4.30;;;14.60;82.50;;;;;;5024315;28;20022;-61
2021/10/28 17:34:49;;;;;;;5.95;4.32;;;14.60;82.80;;;;;;5030583;28;20478;-61
2021/10/28 17:37:23;;;;;;;7.60;4.18;;;14.50;82.80;;;;;;5029862;28;20026;-61
2021/10/28 17:39:48;;;;;;;7.05;4.45;;;14.50;82.90;;;;;;5031750;28;20029;-61
2021/10/28 17:42:16;;;;;;;7.80;4.70;;;14.50;83.00;;;;;;5030293;28;20037;-61
2021/10/28 17:44:49;;;;;;;6.70;4.30;;;14.50;83.20;;;;;;5026250;28;20155;-61
2021/10/28 17:47:16;;;;;;;7.55;4.53;;;14.50;83.30;;;;;;5030469;28;20032;-62
2021/10/28 17:49:42;;;;;;;7.68;4.25;;;14.40;83.50;;;;;;5022177;28;20100;-61
2021/10/28 17:52:08;;;;;;;6.47;4.72;;;14.40;83.60;;;;;;5027928;28;20029;-61
2021/10/28 17:54:35;;;;;;;6.88;5.28;;;14.30;83.70;;;;;;5032048;28;20032;-61
2021/10/28 17:57:05;;;;;;;8.10;4.90;;;14.30;83.90;;;;;;5028712;28;20030;-62
2021/10/28 17:59:31;;;;;;;7.22;5.38;;;14.30;84.20;;;;;;5031160;28;20025;-61
2021/10/28 18:01:56;;;;;;;6.53;5.22;;;14.20;84.40;;;;;;5028148;28;20033;-61
2021/10/28 18:04:31;;;;;;;6.88;5.22;;;14.10;84.60;;;;;;5029221;28;20038;-61
2021/10/28 18:06:57;;;;;;;7.90;5.85;;;14.10;84.90;;;;;;5030386;28;20140;-61
2021/10/28 18:09:24;;;;;;;6.72;5.13;;;14.00;85.40;;;;;;5030292;28;20489;-61
2021/10/28 18:11:54;;;;;;;8.02;6.35;;;13.90;85.80;;;;;;5028089;28;20393;-61
2021/10/28 18:14:23;;;;;;;5.90;5.30;;;13.80;86.30;;;;;;5014336;28;20040;-61
2021/10/28 18:16:48;;;;;;;8.60;6.10;;;13.80;86.70;;;;;;5012825;28;20467;-61
2021/10/28 18:19:14;;;;;;;8.52;5.65;;;13.70;87.10;;;;;;5032069;28;20504;-61
2021/10/28 18:21:44;;;;;;;8.23;6.20;;;13.70;87.40;;;;;;5029732;28;20022;-61
2021/10/28 18:24:11;;;;;;;8.23;5.65;;;13.70;87.70;;;;;;5031049;28;20085;-61
2021/10/28 18:26:37;;;;;;;7.63;5.82;;;13.60;88.00;;;;;;5031208;28;20033;-61
2021/10/28 18:29:03;;;;;;;8.10;5.65;;;13.60;88.30;;;;;;5030123;28;20474;-61
2021/10/28 18:31:29;;;;;;;7.30;5.45;;;13.60;88.50;;;;;;5014040;28;20033;-61
2021/10/28 18:33:59;;;;;;;7.88;6.13;;;13.50;88.70;;;;;;5029967;28;20032;-61
2021/10/28 18:36:27;;;;;;;8.98;6.13;;;13.50;88.90;;;;;;5029607;28;20034;-61
2021/10/28 18:38:53;;;;;;;8.13;6.20;;;13.50;89.10;;;;;;5013534;28;20421;-61
2021/10/28 18:41:19;;;;;;;11.70;6.28;;;13.50;89.40;;;;;;5028769;28;20026;-61
2021/10/28 18:43:46;;;;;;;7.57;6.18;;;13.40;89.70;;;;;;5031691;28;20511;-61
2021/10/28 18:46:18;;;;;;;8.80;6.13;;;13.40;90.00;;;;;;5028703;28;20116;-61
2021/10/28 18:48:44;;;;;;;7.57;6.32;;;13.30;90.10;;;;;;5014361;28;20124;-62
2021/10/28 18:51:10;;;;;;;7.43;6.32;;;13.20;90.30;;;;;;5031392;28;20079;-61
2021/10/28 18:53:40;;;;;;;6.88;6.10;;;13.20;90.50;;;;;;5030193;28;20053;-61
2021/10/28 18:56:06;;;;;;;9.07;7.10;;;13.10;90.60;;;;;;5024801;28;20025;-61
2021/10/28 18:58:32;;;;;;;8.60;7.10;;;13.10;90.80;;;;;;5012701;28;20025;-61
2021/10/28 19:00:58;;;;;;;10.27;7.18;;;13.10;90.90;;;;;;5013408;28;20029;-61
2021/10/28 19:03:24;;;;;;;10.07;7.40;;;13.00;91.00;;;;;;5012682;28;20086;-61
2021/10/28 19:05:54;;;;;;;7.40;5.97;;;13.00;91.20;;;;;;5011736;28;20017;-61
2021/10/28 19:08:20;;;;;;;9.75;7.32;;;12.90;91.30;;;;;;5029744;28;20119;-61
2021/10/28 19:10:46;;;;;;;10.75;6.32;;;12.90;91.50;;;;;;5027461;28;20061;-61
2021/10/28 19:13:11;;;;;;;7.68;6.22;;;12.90;91.50;;;;;;5027837;28;20025;-61
2021/10/28 19:15:38;;;;;;;11.80;8.23;;;12.80;91.60;;;;;;5029510;28;20034;-61
2021/10/28 19:18:05;;;;;;;9.90;7.53;;;12.80;91.70;;;;;;5034046;28;20371;-61
2021/10/28 19:20:31;;;;;;;9.68;6.78;;;12.70;91.90;;;;;;5014149;28;20428;-61
2021/10/28 19:22:56;;;;;;;11.10;7.85;;;12.70;92.00;;;;;;5036309;28;20108;-61
2021/10/28 19:25:22;;;;;;;10.30;7.47;;;12.70;92.20;;;;;;5036014;28;20041;-61
2021/10/28 19:27:54;;;;;;;9.35;7.03;;;12.60;92.30;;;;;;5030948;28;20033;-61
2021/10/28 19:32:46;;;;;;;11.48;7.72;;;12.50;92.50;;;;;;5016730;28;20032;-61
2021/10/28 19:35:12;;;;;;;10.50;7.43;;;12.50;92.60;;;;;;5010395;28;20508;-61
2021/10/28 19:37:57;;;;;;;9.68;7.90;;;12.50;92.80;;;;;;5011636;28;20112;-61
2021/10/28 19:48:10;;;;;;;10.05;8.07;;;12.40;93.30;;;;;;5031436;28;20026;-61
2021/10/28 19:50:35;;;;;;;8.25;6.78;;;12.30;93.40;;;;;;5032547;28;20022;-61
2021/10/28 19:53:01;;;;;;;10.80;8.30;;;12.30;93.70;;;;;;5030217;28;20025;-61
2021/10/28 19:55:27;;;;;;;9.93;8.27;;;12.30;93.50;;;;;;5024684;28;20499;-61
2021/10/28 19:57:54;;;;;;;9.98;7.75;;;12.30;93.60;;;;;;5031022;28;20595;-61
2021/10/28 20:00:47;;;;;;;12.45;7.72;;;12.20;93.70;;;;;;5034741;28;20029;-61
2021/10/28 20:05:51;;;;;;;13.52;8.38;;;12.20;93.90;;;;;;5033424;28;20026;-61
2021/10/28 20:21:40;;;;;;;11.90;8.15;;;12.00;94.10;;;;;;5028671;28;20040;-61
2021/10/28 20:24:08;;;;;;;10.80;8.68;;;12.00;94.20;;;;;;5031159;28;20390;-61
2021/10/28 20:26:33;;;;;;;10.73;8.65;;;11.90;94.20;;;;;;5012299;28;20029;-61
2021/10/28 20:29:00;;;;;;;11.38;9.10;;;11.90;94.20;;;;;;5031252;28;20029;-61
2021/10/28 20:31:27;;;;;;;10.70;8.55;;;11.90;94.30;;;;;;5032725;28;20499;-61
2021/10/28 20:39:17;;;;;;;11.00;7.03;;;11.80;94.30;;;;;;5028584;28;20040;-61
2021/10/28 20:41:42;;;;;;;10.27;8.05;;;11.80;94.40;;;;;;5030923;28;20033;-61
2021/10/28 20:44:08;;;;;;;10.68;8.32;;;11.80;94.40;;;;;;5032080;28;20030;-61
2021/10/28 20:46:34;;;;;;;11.50;8.30;;;11.70;94.50;;;;;;5028655;28;20117;-61
2021/10/28 20:48:59;;;;;;;11.50;8.65;;;11.70;94.70;;;;;;5033683;28;20025;-61
2021/10/28 20:51:25;;;;;;;10.32;8.02;;;11.70;94.80;;;;;;5016926;28;20025;-61
2021/10/28 20:53:51;;;;;;;11.88;8.68;;;11.60;94.90;;;;;;5029710;28;20037;-61
2021/10/28 20:56:17;;;;;;;10.27;8.13;;;11.60;95.00;;;;;;5026101;28;20022;-61
2021/10/28 20:58:42;;;;;;;10.32;8.40;;;11.50;95.20;;;;;;5024482;28;20091;-61
2021/10/28 21:01:08;;;;;;;13.68;8.55;;;11.50;95.30;;;;;;5025564;28;20112;-61
2021/10/28 21:03:34;;;;;;;11.75;8.52;;;11.50;95.40;;;;;;5034791;28;20021;-61
2021/10/28 21:06:01;;;;;;;17.55;8.60;;;11.50;95.50;;;;;;5024527;28;20048;-61
2021/10/28 21:08:27;;;;;;;12.75;9.45;;;11.40;95.60;;;;;;5022071;28;20037;-61
2021/10/28 21:10:54;;;;;;;14.57;9.30;;;11.40;95.70;;;;;;5021987;28;20496;-61
2021/10/28 21:13:20;;;;;;;10.85;8.50;;;11.40;95.80;;;;;;5022714;28;20037;-61
2021/10/28 21:15:46;;;;;;;13.05;9.75;;;11.40;95.90;;;;;;5019672;28;20021;-61
2021/10/28 21:18:12;;;;;;;14.32;9.57;;;11.30;96.00;;;;;;5026120;28;20021;-61
2021/10/28 21:20:38;;;;;;;13.38;10.30;;;11.30;96.10;;;;;;5018440;28;20033;-61
2021/10/28 21:23:39;;;;;;;13.27;9.93;;;11.30;96.20;;;;;;5020965;28;20025;-61
2021/10/28 21:26:05;;;;;;;12.88;10.20;;;11.20;96.30;;;;;;5003725;28;20382;-62
2021/10/28 21:28:30;;;;;;;16.13;10.00;;;11.20;96.60;;;;;;5020581;28;20508;-61
2021/10/28 21:30:56;;;;;;;15.80;10.23;;;11.10;96.70;;;;;;5019614;28;20040;-61
2021/10/28 21:33:21;;;;;;;16.48;11.93;;;11.00;96.70;;;;;;5021229;28;20041;-61
2021/10/28 21:35:47;;;;;;;16.15;11.20;;;11.00;96.80;;;;;;5024926;28;20064;-61
2021/10/28 21:38:13;;;;;;;18.70;11.98;;;11.00;96.90;;;;;;5027609;28;20041;-61
2021/10/28 21:40:39;;;;;;;19.20;11.73;;;10.90;96.90;;;;;;5025851;28;20033;-61
2021/10/28 21:43:05;;;;;;;14.00;10.70;;;10.90;97.10;;;;;;5025191;28;20493;-61
2021/10/28 21:45:31;;;;;;;16.20;11.63;;;10.90;97.10;;;;;;5012218;28;20036;-61
2021/10/28 21:47:58;;;;;;;16.50;12.43;;;10.80;97.20;;;;;;5026002;28;20112;-61
2021/10/28 21:50:24;;;;;;;17.40;12.27;;;10.80;97.30;;;;;;5024332;28;20022;-61
2021/10/28 21:52:56;;;;;;;17.88;12.10;;;10.80;97.40;;;;;;5022286;28;20032;-61
2021/10/28 21:58:07;;;;;;;17.40;12.68;;;10.70;97.50;;;;;;5023024;28;20029;-61
2021/10/28 22:01:03;;;;;;;15.30;11.10;;;10.70;97.60;;;;;;5007967;28;20477;-61
2021/10/28 22:06:42;;;;;;;17.35;13.07;;;10.60;97.70;;;;;;5024778;28;20033;-61
2021/10/28 22:25:27;;;;;;;21.77;15.07;;;10.30;98.40;;;;;;5026062;28;20155;-60
2021/10/28 22:27:53;;;;;;;21.63;15.57;;;10.30;98.40;;;;;;5021569;28;20119;-61
2021/10/28 22:30:19;;;;;;;21.67;15.55;;;10.30;98.50;;;;;;5026984;28;20592;-60
2021/10/28 22:32:47;;;;;;;26.30;17.15;;;10.30;98.50;;;;;;5025199;28;20108;-60
2021/10/28 22:35:18;;;;;;;19.98;15.73;;;10.20;98.60;;;;;;5023432;28;20120;-61